createdAt,value
2022-12-27T00:00:41.098Z,6.29
2022-12-27T00:04:02.949Z,6.25
2022-12-27T00:07:26.148Z,6.28
2022-12-27T00:10:47.952Z,6.28
2022-12-27T00:14:09.095Z,6.30
2022-12-27T00:17:30.283Z,6.22
2022-12-27T00:20:58.157Z,6.18
2022-12-27T00:24:21.198Z,6.22
2022-12-27T00:27:42.889Z,6.18
2022-12-27T00:31:05.815Z,6.15
2022-12-27T00:34:27.255Z,6.13
2022-12-27T00:37:48.844Z,6.05
2022-12-27T00:41:11.518Z,5.99
2022-12-27T00:44:32.996Z,5.97
2022-12-27T00:47:54.690Z,5.97
2022-12-27T00:51:18.435Z,5.96
2022-12-27T00:54:40.253Z,5.93
2022-12-27T00:58:03.614Z,5.88
2022-12-27T01:01:26.724Z,5.86
2022-12-27T01:04:48.331Z,5.77
2022-12-27T01:08:10.369Z,5.70
2022-12-27T01:11:32.534Z,5.66
2022-12-27T01:14:55.508Z,5.61
2022-12-27T01:18:17.248Z,5.57
2022-12-27T01:21:38.527Z,5.49
2022-12-27T01:24:59.866Z,5.46
2022-12-27T01:28:21.506Z,5.47
2022-12-27T01:31:44.873Z,5.40
2022-12-27T01:35:06.800Z,5.38
2022-12-27T01:38:28.557Z,5.37
2022-12-27T01:42:21.452Z,5.29
2022-12-27T01:45:42.966Z,5.25
2022-12-27T01:49:06.019Z,5.26
2022-12-27T01:52:35.112Z,5.23
2022-12-27T01:56:00.490Z,5.16
2022-12-27T01:59:22.574Z,5.10
2022-12-27T02:02:44.365Z,5.06
2022-12-27T02:06:10.212Z,5.05
2022-12-27T02:09:39.432Z,4.95
2022-12-27T02:13:02.428Z,4.93
2022-12-27T02:16:24.292Z,4.93
2022-12-27T02:19:58.427Z,4.93
2022-12-27T02:23:57.729Z,4.80
2022-12-27T02:27:36.144Z,4.75
2022-12-27T02:31:05.371Z,4.76
2022-12-27T02:34:30.825Z,4.71
2022-12-27T02:37:56.075Z,4.75
2022-12-27T02:41:36.374Z,4.78
2022-12-27T02:45:14.773Z,4.77
2022-12-27T02:48:54.924Z,4.77
2022-12-27T02:52:42.796Z,4.75
2022-12-27T02:56:37.560Z,4.70
2022-12-27T03:00:25.504Z,4.68
2022-12-27T03:04:05.935Z,4.71
2022-12-27T03:07:36.008Z,4.69
2022-12-27T03:11:18.628Z,4.66
2022-12-27T03:15:01.804Z,4.61
2022-12-27T03:18:33.385Z,4.59
2022-12-27T03:22:14.196Z,4.54
2022-12-27T03:25:40.370Z,4.53
2022-12-27T03:29:22.118Z,4.52
2022-12-27T03:33:04.352Z,4.52
2022-12-27T03:36:56.944Z,4.52
2022-12-27T03:40:28.578Z,4.51
2022-12-27T03:43:50.659Z,4.47
2022-12-27T03:47:19.456Z,4.43
2022-12-27T03:50:47.609Z,4.46
2022-12-27T03:54:17.431Z,4.34
2022-12-27T03:57:40.333Z,4.35
2022-12-27T04:01:02.000Z,4.37
2022-12-27T04:04:24.552Z,4.40
2022-12-27T04:08:03.370Z,4.41
2022-12-27T04:11:42.220Z,4.41
2022-12-27T04:15:23.322Z,4.35
2022-12-27T04:19:01.986Z,4.38
2022-12-27T04:22:40.882Z,4.35
2022-12-27T04:26:19.596Z,4.35
2022-12-27T04:29:58.517Z,4.35
2022-12-27T04:33:39.264Z,4.34
2022-12-27T04:37:00.710Z,4.32
2022-12-27T04:40:39.336Z,4.30
2022-12-27T04:44:18.037Z,4.25
2022-12-27T04:47:58.475Z,4.24
2022-12-27T04:51:38.615Z,4.25
2022-12-27T04:55:03.287Z,4.23
2022-12-27T04:58:24.851Z,4.20
2022-12-27T05:02:04.371Z,4.11
2022-12-27T05:05:26.524Z,4.14
2022-12-27T05:09:07.414Z,4.15
2022-12-27T05:12:45.345Z,4.09
2022-12-27T05:16:07.153Z,4.02
2022-12-27T05:19:28.745Z,4.03
2022-12-27T05:23:07.471Z,3.98
2022-12-27T05:26:31.757Z,3.95
2022-12-27T05:29:53.221Z,3.97
2022-12-27T05:33:15.013Z,3.94
2022-12-27T05:36:36.228Z,3.94
2022-12-27T05:39:58.104Z,3.90
2022-12-27T05:43:21.195Z,3.92
2022-12-27T05:46:43.048Z,3.92
2022-12-27T05:50:05.059Z,3.93
2022-12-27T05:53:26.714Z,3.94
2022-12-27T05:56:49.064Z,3.94
2022-12-27T06:00:13.520Z,3.93
2022-12-27T06:03:34.803Z,3.96
2022-12-27T06:06:56.496Z,3.89
2022-12-27T06:10:18.116Z,3.91
2022-12-27T06:13:42.822Z,3.91
2022-12-27T06:17:05.592Z,3.93
2022-12-27T06:20:27.329Z,3.91
2022-12-27T06:23:49.771Z,3.94
2022-12-27T06:27:11.411Z,3.91
2022-12-27T06:30:36.283Z,3.90
2022-12-27T06:34:00.499Z,3.87
2022-12-27T06:37:22.265Z,3.88
2022-12-27T06:40:44.056Z,3.95
2022-12-27T06:44:06.375Z,3.94
2022-12-27T06:47:27.958Z,3.93
2022-12-27T06:50:51.105Z,3.83
2022-12-27T06:54:12.398Z,3.86
2022-12-27T06:57:33.808Z,3.91
2022-12-27T07:00:55.136Z,3.94
2022-12-27T07:04:16.801Z,3.95
2022-12-27T07:07:39.871Z,4.00
2022-12-27T07:11:01.944Z,4.00
2022-12-27T07:14:23.393Z,3.99
2022-12-27T07:17:44.911Z,4.03
2022-12-27T07:21:07.608Z,4.06
2022-12-27T07:24:32.223Z,4.06
2022-12-27T07:27:53.498Z,4.08
2022-12-27T07:31:17.699Z,4.08
2022-12-27T07:34:39.054Z,4.10
2022-12-27T07:38:01.235Z,4.14
2022-12-27T07:41:24.957Z,4.17
2022-12-27T07:44:48.178Z,4.19
2022-12-27T07:48:09.639Z,4.16
2022-12-27T07:51:31.479Z,4.10
2022-12-27T07:54:53.451Z,4.15
2022-12-27T07:58:16.692Z,4.25
2022-12-27T08:01:58.174Z,4.28
2022-12-27T08:05:25.957Z,4.34
2022-12-27T08:08:50.499Z,4.34
2022-12-27T08:12:13.465Z,4.41
2022-12-27T08:15:37.532Z,4.46
2022-12-27T08:19:03.339Z,4.53
2022-12-27T08:22:29.556Z,4.51
2022-12-27T08:25:51.586Z,4.54
2022-12-27T08:29:13.502Z,4.64
2022-12-27T08:32:36.846Z,4.71
2022-12-27T08:35:58.730Z,4.75
2022-12-27T08:39:20.264Z,4.80
2022-12-27T08:42:42.012Z,4.83
2022-12-27T08:46:05.418Z,4.81
2022-12-27T08:49:28.420Z,4.83
2022-12-27T08:52:50.227Z,4.84
2022-12-27T08:56:12.440Z,4.85
2022-12-27T08:59:34.081Z,4.87
2022-12-27T09:02:55.758Z,4.93
2022-12-27T09:06:20.757Z,4.93
2022-12-27T09:09:42.185Z,4.95
2022-12-27T09:13:04.312Z,4.97
2022-12-27T09:16:27.865Z,4.99
2022-12-27T09:19:49.606Z,4.98
2022-12-27T09:23:12.716Z,5.00
2022-12-27T09:26:34.584Z,5.00
2022-12-27T09:29:56.238Z,5.00
2022-12-27T09:33:18.242Z,5.02
2022-12-27T09:36:41.436Z,5.07
2022-12-27T09:40:04.646Z,5.11
2022-12-27T09:43:38.060Z,5.12
2022-12-27T09:47:06.081Z,5.11
2022-12-27T09:50:33.507Z,5.13
2022-12-27T09:54:00.738Z,5.13
2022-12-27T09:57:27.648Z,5.12
2022-12-27T10:00:51.451Z,5.11
2022-12-27T10:04:14.514Z,5.20
2022-12-27T10:07:48.499Z,5.22
2022-12-27T10:11:34.049Z,5.27
2022-12-27T10:15:12.351Z,5.23
2022-12-27T10:18:45.986Z,5.21
2022-12-27T10:22:17.404Z,5.22
2022-12-27T10:25:41.324Z,5.30
2022-12-27T10:29:11.979Z,5.31
2022-12-27T10:32:34.703Z,5.31
2022-12-27T10:35:57.593Z,5.30
2022-12-27T10:39:21.471Z,5.31
2022-12-27T10:42:46.771Z,5.30
2022-12-27T10:46:14.496Z,5.36
2022-12-27T10:49:39.627Z,5.40
2022-12-27T10:53:01.309Z,5.41
2022-12-27T10:56:27.761Z,5.47
2022-12-27T11:00:15.146Z,5.52
2022-12-27T11:03:36.808Z,5.49
2022-12-27T11:07:14.532Z,5.55
2022-12-27T11:10:35.920Z,5.56
2022-12-27T11:14:11.287Z,5.61
2022-12-27T11:17:38.740Z,5.62
2022-12-27T11:21:01.151Z,5.64
2022-12-27T11:24:24.322Z,5.67
2022-12-27T11:27:47.689Z,5.62
2022-12-27T11:31:11.993Z,5.56
2022-12-27T11:34:37.443Z,5.58
2022-12-27T11:37:59.329Z,5.60
2022-12-27T11:41:32.171Z,5.53
2022-12-27T11:45:03.355Z,5.59
2022-12-27T11:48:29.384Z,5.63
2022-12-27T11:52:24.080Z,5.63
2022-12-27T11:56:18.607Z,5.70
2022-12-27T11:59:54.084Z,5.74
2022-12-27T12:03:40.450Z,5.69
2022-12-27T12:07:12.757Z,5.76
2022-12-27T12:10:45.360Z,5.77
2022-12-27T12:14:30.905Z,5.73
2022-12-27T12:18:08.025Z,5.74
2022-12-27T12:21:37.830Z,5.75
2022-12-27T12:25:23.475Z,5.77
2022-12-27T12:29:10.686Z,5.78
2022-12-27T12:32:42.449Z,5.79
2022-12-27T12:36:28.086Z,5.78
2022-12-27T12:40:00.725Z,5.82
2022-12-27T12:43:41.051Z,5.87
2022-12-27T12:47:16.349Z,5.87
2022-12-27T12:50:56.472Z,5.82
2022-12-27T12:54:37.609Z,5.83
2022-12-27T12:58:09.014Z,5.83
2022-12-27T13:01:52.698Z,5.73
2022-12-27T13:05:24.014Z,5.78
2022-12-27T13:08:52.087Z,5.79
2022-12-27T13:12:22.392Z,5.83
2022-12-27T13:15:56.695Z,5.83
2022-12-27T13:19:37.837Z,5.86
2022-12-27T13:23:12.962Z,5.92
2022-12-27T13:26:43.871Z,5.92
2022-12-27T13:30:17.625Z,5.96
2022-12-27T13:33:49.564Z,5.92
2022-12-27T13:37:27.179Z,5.94
2022-12-27T13:41:06.332Z,5.92
2022-12-27T13:44:37.693Z,5.95
2022-12-27T13:48:09.890Z,5.97
2022-12-27T13:51:46.484Z,5.98
2022-12-27T13:55:28.713Z,6.00
2022-12-27T13:59:06.823Z,6.02
2022-12-27T14:03:02.733Z,6.05
2022-12-27T14:06:46.147Z,6.02
2022-12-27T14:10:21.420Z,5.98
2022-12-27T14:13:45.525Z,5.98
2022-12-27T14:17:25.176Z,5.99
2022-12-27T14:21:03.458Z,5.98
2022-12-27T14:24:54.626Z,5.97
2022-12-27T14:28:48.549Z,5.96
2022-12-27T14:32:47.036Z,5.97
2022-12-27T14:36:48.303Z,5.98
2022-12-27T14:40:47.832Z,5.92
2022-12-27T14:44:49.545Z,5.88
2022-12-27T14:48:34.790Z,5.88
2022-12-27T14:52:17.947Z,5.85
2022-12-27T14:55:51.925Z,5.79
2022-12-27T14:59:25.766Z,5.79
2022-12-27T15:03:06.235Z,5.79
2022-12-27T15:06:44.797Z,5.80
2022-12-27T15:10:16.401Z,5.70
2022-12-27T15:13:54.473Z,5.65
2022-12-27T15:17:29.080Z,5.62
2022-12-27T15:21:14.236Z,5.62
2022-12-27T15:24:47.579Z,5.54
2022-12-27T15:28:18.835Z,5.49
2022-12-27T15:31:57.909Z,5.52
2022-12-27T15:35:33.881Z,5.51
2022-12-27T15:38:55.893Z,5.51
2022-12-27T15:42:48.986Z,5.46
2022-12-27T15:46:23.779Z,5.49
2022-12-27T15:50:21.323Z,5.48
2022-12-27T15:54:08.483Z,5.48
2022-12-27T15:58:06.792Z,5.47
2022-12-27T16:01:30.570Z,5.50
2022-12-27T16:04:56.802Z,5.48
2022-12-27T16:08:34.873Z,5.49
2022-12-27T16:12:03.921Z,5.47
2022-12-27T16:15:43.142Z,5.43
2022-12-27T16:19:20.112Z,5.39
2022-12-27T16:22:46.027Z,5.25
2022-12-27T16:26:10.681Z,5.29
2022-12-27T16:29:34.537Z,5.33
2022-12-27T16:32:56.345Z,5.33
2022-12-27T16:36:28.823Z,5.34
2022-12-27T16:40:05.892Z,5.39
2022-12-27T16:43:50.373Z,5.37
2022-12-27T16:47:22.809Z,5.38
2022-12-27T16:50:58.007Z,5.38
2022-12-27T16:54:32.551Z,5.28
2022-12-27T16:58:25.761Z,5.31
2022-12-27T17:02:02.352Z,5.32
2022-12-27T17:05:35.848Z,5.32
2022-12-27T17:09:33.939Z,5.29
2022-12-27T17:13:00.613Z,5.27
2022-12-27T17:16:24.456Z,5.24
2022-12-27T17:19:52.143Z,5.22
2022-12-27T17:23:13.943Z,5.20
2022-12-27T17:26:59.235Z,5.17
2022-12-27T17:30:23.407Z,5.13
2022-12-27T17:33:59.883Z,5.10
2022-12-27T17:37:29.032Z,5.07
2022-12-27T17:41:01.102Z,5.04
2022-12-27T17:44:40.581Z,4.98
2022-12-27T17:48:10.697Z,4.96
2022-12-27T17:51:35.587Z,4.93
2022-12-27T17:55:25.647Z,4.87
2022-12-27T17:58:47.870Z,4.85
2022-12-27T18:02:17.966Z,4.80
2022-12-27T18:05:44.865Z,4.80
2022-12-27T18:09:08.252Z,4.77
2022-12-27T18:12:32.403Z,4.73
2022-12-27T18:15:55.515Z,4.73
2022-12-27T18:19:20.496Z,4.70
2022-12-27T18:22:43.361Z,4.67
2022-12-27T18:26:13.474Z,4.58
2022-12-27T18:29:35.308Z,4.54
2022-12-27T18:32:58.664Z,4.52
2022-12-27T18:36:27.954Z,4.49
2022-12-27T18:39:55.559Z,4.46
2022-12-27T18:43:17.408Z,4.43
2022-12-27T18:46:39.970Z,4.38
2022-12-27T18:50:03.210Z,4.37
2022-12-27T18:53:26.678Z,4.33
2022-12-27T18:56:53.024Z,4.31
2022-12-27T19:00:19.578Z,4.30
2022-12-27T19:03:41.260Z,4.30
2022-12-27T19:07:10.186Z,4.28
2022-12-27T19:10:33.569Z,4.29
2022-12-27T19:13:59.089Z,4.27
2022-12-27T19:17:24.382Z,4.25
2022-12-27T19:20:53.772Z,4.18
2022-12-27T19:24:31.981Z,4.19
2022-12-27T19:28:01.742Z,4.18
2022-12-27T19:31:24.808Z,4.19
2022-12-27T19:34:48.489Z,4.19
2022-12-27T19:38:19.446Z,4.17
2022-12-27T19:41:40.953Z,4.17
2022-12-27T19:45:02.647Z,4.18
2022-12-27T19:48:25.780Z,4.15
2022-12-27T19:51:47.708Z,4.13
2022-12-27T19:55:13.867Z,4.07
2022-12-27T19:58:35.643Z,4.07
2022-12-27T20:01:57.313Z,4.04
2022-12-27T20:06:13.026Z,4.01
2022-12-27T20:09:02.935Z,4.00
2022-12-27T20:12:24.146Z,3.99
2022-12-27T20:15:46.173Z,3.98
2022-12-27T20:19:08.014Z,3.94
2022-12-27T20:22:31.083Z,3.87
2022-12-27T20:25:52.955Z,3.87
2022-12-27T20:29:15.228Z,3.81
2022-12-27T20:32:36.714Z,3.79
2022-12-27T20:35:59.392Z,3.75
2022-12-27T20:39:22.640Z,3.71
2022-12-27T20:42:44.553Z,3.69
2022-12-27T20:46:07.308Z,3.68
2022-12-27T20:49:28.744Z,3.67
2022-12-27T20:52:50.424Z,3.66
2022-12-27T20:56:14.091Z,3.65
2022-12-27T20:59:35.432Z,3.64
2022-12-27T21:02:57.224Z,3.63
2022-12-27T21:06:21.621Z,3.60
2022-12-27T21:09:43.048Z,3.59
2022-12-27T21:13:06.317Z,3.52
2022-12-27T21:16:30.352Z,3.53
2022-12-27T21:19:51.699Z,3.49
2022-12-27T21:23:12.866Z,3.48
2022-12-27T21:26:36.490Z,3.48
2022-12-27T21:29:59.330Z,3.48
2022-12-27T21:33:21.263Z,3.47
2022-12-27T21:36:43.160Z,3.47
2022-12-27T21:40:04.791Z,3.48
2022-12-27T21:43:28.761Z,3.50
2022-12-27T21:46:51.519Z,3.51
2022-12-27T21:50:13.465Z,3.53
2022-12-27T21:53:35.871Z,3.60
2022-12-27T21:56:57.603Z,3.63
2022-12-27T22:00:19.435Z,3.67
2022-12-27T22:03:44.344Z,3.72
2022-12-27T22:07:05.587Z,3.75
2022-12-27T22:10:27.256Z,3.78
2022-12-27T22:13:49.534Z,3.81
2022-12-27T22:17:11.175Z,3.84
2022-12-27T22:20:33.919Z,3.87
2022-12-27T22:23:57.373Z,3.93
2022-12-27T22:27:18.761Z,3.97
2022-12-27T22:30:40.604Z,3.98
2022-12-27T22:34:03.533Z,4.01
2022-12-27T22:37:26.630Z,4.01
2022-12-27T22:40:48.401Z,4.03
2022-12-27T22:44:13.590Z,4.03
2022-12-27T22:47:35.418Z,4.04
2022-12-27T22:50:57.097Z,4.05
2022-12-27T22:54:20.272Z,4.04
2022-12-27T22:57:42.791Z,4.07
2022-12-27T23:01:10.835Z,4.06
2022-12-27T23:04:32.715Z,4.05
2022-12-27T23:08:04.816Z,4.05
2022-12-27T23:11:32.096Z,4.08
2022-12-27T23:14:53.775Z,4.08
2022-12-27T23:18:15.647Z,4.09
2022-12-27T23:21:38.163Z,4.08
2022-12-27T23:24:59.676Z,4.09
2022-12-27T23:28:22.975Z,4.08
2022-12-27T23:31:55.266Z,4.09
2022-12-27T23:35:17.579Z,4.09
2022-12-27T23:38:39.487Z,4.09
2022-12-27T23:42:01.279Z,4.08
2022-12-27T23:45:25.267Z,4.09
2022-12-27T23:48:47.082Z,4.10
2022-12-27T23:52:08.491Z,4.10
2022-12-27T23:55:30.402Z,4.09
2022-12-27T23:58:55.181Z,4.08
